This is the latest recevied weather packets stored in our database for station/object kj4yre. If no packets are shown the sender has not sent any weather packets the latest 10 day(s).
| Time | Temp. | Humidity | Pressure | Rain* | Wind** | Luminosity | Snow |
|---|---|---|---|---|---|---|---|
| 1777692006 | 12.78° C | 86% | 1014.1 hPa | 0 mm | - | - | - |
| 1777684807 | 11.67° C | 85% | 1013.9 hPa | 0 mm | - | - | - |
| 1777684206 | 12.22° C | 82% | 1013.8 hPa | 0 mm | - | - | - |
| 1777656606 | 20° C | 38% | 1015.6 hPa | 0 mm | - | - | - |
| 1777655705 | 18.33° C | 41% | 1015.6 hPa | 0 mm | - | - | - |
| 1777654206 | 17.22° C | 41% | 1015.8 hPa | 0 mm | - | - | - |
| 1777651806 | 19.44° C | 40% | 1016.3 hPa | 0 mm | - | - | - |
| 1777651206 | 17.78° C | 41% | 1016.5 hPa | 0 mm | - | - | - |
| 1777650005 | 16.67° C | 43% | 1016.8 hPa | 0 mm | - | - | - |
| 1777645206 | 16.11° C | 53% | 1017.2 hPa | 0 mm | - | - | - |
| 1777644006 | 15° C | 51% | 1017.3 hPa | 0 mm | - | - | - |
| 1777638306 | 10.56° C | 83% | 1017.8 hPa | 0 mm | - | - | - |
| 1777636806 | 8.33° C | 92% | 1017.5 hPa | 0 mm | - | - | - |
| 1777636506 | 8.33° C | 94% | 1017.4 hPa | 0 mm | - | - | - |
| 1777635606 | 7.22° C | 94% | 1017.6 hPa | 0 mm | - | - | - |
| 1777631409 | 3.89° C | 100% | 1016.3 hPa | 0 mm | - | - | - |
| 1777630807 | 3.89° C | 100% | 1016.2 hPa | 0 mm | - | - | - |
| 1777625706 | 5° C | 97% | 1016.2 hPa | 0 mm | - | - | - |
| 1777615507 | 9.44° C | 71% | 1015.4 hPa | 0 mm | - | - | - |
| 1777613106 | 10.56° C | 68% | 1015.3 hPa | 0 mm | - | - | - |
| 1777611307 | 11.67° C | 64% | 1015.2 hPa | 0 mm | - | - | - |
| 1777605906 | 13.33° C | 64% | 1014.7 hPa | 0 mm | - | - | - |
| 1777602908 | 15° C | 56% | 1014.3 hPa | 0 mm | - | - | - |
| 1777595406 | 15.56° C | 82% | 1011.3 hPa | 0 mm | - | - | - |
| 1777590006 | 20° C | 61% | 1009.2 hPa | 0 mm | - | - | - |
* Rain latest hour (hover to see other rain measurements)
** Current wind speed in m/s (hover to see current wind gust speed)